Risingdale, Massachusetts
Current Conditions -  °F | °C
As of 3:54 AM on Wednesday 28 Jan 2015 (Local Time) from KPSF Reporting Station
Overcast Overcast  
Wind Chill: -21°   Ceiling: 2600
Heat Index: -13°   Visibility: 10mi
Dew Point: -17°   Wind: 12mph
Humidity: 70%   Direction: 330°NNW
Pressure: 29.77"   Gusts: 25mph
Location:  42.1779°N, 73.3332°W
Report Text: KPSF 280854Z AUTO 33010G22KT 10SM BKN026 OVC120 M13/M17 A2977 RMK AO2 PK WND 35035/0833 SNE0758 SLP113 P0000 60000 T11281172 53014
Loading
Personal Weather Stations






























Interactive Weather Map New forecast layout! Learn more

10-Day Weather Forecast

Advertisements
Track Severe Weather on mobile